| time (UTC) | temp F | wind direction | speed MPH | gust MPH | rain 1hr in | rain 24hr in | rain mn in | humidity % | barometer mb |
| 20260906110001 | 70 | 142 | 0.0 | 0.0 | 0.00 | 0.00 | 0.00 | 92 | 1011.3 |
| 20260906103002 | 71 | 212 | 0.0 | 1.0 | 0.00 | 0.00 | 0.00 | 91 | 1011.4 |
| 20260906100004 | 71 | 232 | 0.0 | 0.0 | 0.00 | 0.00 | 0.00 | 90 | 1011.1 |
| 20260906090002 | 71 | 345 | 0.0 | 0.0 | 0.00 | 0.00 | 0.00 | 90 | 1010.6 |
| 20260906080002 | 70 | 340 | 0.0 | 1.0 | 0.00 | 0.00 | 0.00 | 90 | 1010.5 |
| 20260906070001 | 72 | 337 | 0.0 | 0.0 | 0.00 | 0.00 | 0.00 | 87 | 1010.6 |
| 20260906060003 | 73 | 345 | 0.0 | 1.0 | 0.00 | 0.00 | 0.00 | 86 | 1010.8 |
| 20260906050008 | 73 | 340 | 0.0 | 1.0 | 0.00 | 0.00 | 0.00 | 85 | 1010.6 |
| 20260906044502 | 74 | 338 | 0.0 | 1.0 | 0.00 | 0.00 | 0.00 | 84 | 1010.7 |
| 20260906043002 | 73 | 337 | 0.0 | 1.0 | 0.00 | 0.00 | 0.00 | 84 | 1010.7 |
| 20260906041502 | 74 | 330 | 0.0 | 1.0 | 0.00 | 0.00 | 0.00 | 83 | 1010.9 |
| 20260906040005 | 74 | 82 | 0.0 | 1.0 | 0.00 | 0.00 | 0.00 | 82 | 1010.7 |
| 20260906034502 | 75 | 352 | 0.0 | 1.0 | 0.00 | 0.00 | 0.00 | 80 | 1010.9 |
| 20260906033003 | 75 | 346 | 0.0 | 1.0 | 0.00 | 0.00 | 0.00 | 81 | 1011.1 |
| 20260906031500 | 76 | 81 | 0.0 | 1.0 | 0.00 | 0.00 | 0.00 | 79 | 1011.2 |
| 20260906030007 | 76 | 338 | 0.0 | 1.0 | 0.00 | 0.00 | 0.00 | 79 | 1011.1 |
| 20260906024501 | 76 | 125 | 0.0 | 1.0 | 0.00 | 0.00 | 0.00 | 79 | 1011.1 |
| 20260906023000 | 76 | 340 | 0.0 | 0.0 | 0.00 | 0.00 | 0.00 | 78 | 1010.9 |
| 20260906021501 | 76 | 340 | 0.0 | 1.0 | 0.00 | 0.00 | 0.00 | 79 | 1010.8 |
| 20260906020004 | 75 | 53 | 0.0 | 1.0 | 0.00 | 0.00 | 0.00 | 82 | 1010.6 |
| 20260906014502 | 76 | 98 | 0.0 | 0.0 | 0.00 | 0.00 | 0.00 | 81 | 1010.3 |
| 20260906013003 | 78 | 97 | 0.0 | 0.0 | 0.00 | 0.00 | 0.00 | 77 | 1010.3 |
| 20260906011501 | 80 | 342 | 1.0 | 3.0 | 0.00 | 0.00 | 0.00 | 71 | 1010.1 |
| 20260906010003 | 80 | 341 | 1.0 | 2.0 | 0.00 | 0.00 | 0.00 | 72 | 1010.0 |
| 20260906004501 | 79 | 352 | 0.0 | 1.0 | 0.00 | 0.00 | 0.00 | 74 | 1010.0 |
| 20260906003001 | 80 | 340 | 0.0 | 1.0 | 0.00 | 0.00 | 0.00 | 72 | 1009.7 |
| 20260906001501 | 80 | 339 | 0.0 | 2.0 | 0.00 | 0.00 | 0.00 | 72 | 1009.5 |
| 20260906000003 | 80 | 348 | 0.0 | 0.0 | 0.00 | 0.00 | 0.00 | 73 | 1009.2 |
| 20260905230004 | 83 | 25 | 0.0 | 0.0 | 0.00 | 0.00 | 0.00 | 68 | 1009.1 |
| 20260905220004 | 86 | 75 | 0.0 | 4.0 | 0.00 | 0.02 | 0.00 | 62 | 1008.9 |
| 20260905213001 | 87 | 106 | 0.0 | 6.0 | 0.00 | 0.02 | 0.00 | 62 | 1008.7 |
| 20260905210003 | 88 | 70 | 0.0 | 4.0 | 0.00 | 0.02 | 0.00 | 59 | 1008.6 |
| 20260905203001 | 90 | 321 | 0.0 | 3.0 | 0.00 | 0.02 | 0.00 | 54 | 1008.7 |
| 20260905201500 | 90 | 84 | 0.0 | 5.0 | 0.00 | 0.02 | 0.00 | 54 | 1008.3 |
| 20260905200003 | 91 | 166 | 1.0 | 4.0 | 0.00 | 0.02 | 0.00 | 55 | 1008.2 |
| 20260905194502 | 90 | 51 | 0.0 | 4.0 | 0.00 | 0.02 | 0.00 | 54 | 1008.2 |
| 20260905193003 | 90 | 296 | 1.0 | 7.0 | 0.00 | 0.02 | 0.00 | 52 | 1008.3 |
| 20260905191500 | 89 | 341 | 6.0 | 10.0 | 0.00 | 0.02 | 0.00 | 50 | 1008.7 |
| 20260905190003 | 89 | 86 | 0.0 | 7.0 | 0.00 | 0.02 | 0.00 | 60 | 1008.8 |
| 20260905184501 | 88 | 113 | 0.0 | 7.0 | 0.00 | 0.02 | 0.00 | 59 | 1009.5 |
| 20260905183000 | 88 | 119 | 0.0 | 4.0 | 0.00 | 0.02 | 0.00 | 60 | 1009.9 |
| 20260905181502 | 87 | 91 | 0.0 | 5.0 | 0.00 | 0.02 | 0.00 | 61 | 1010.0 |
| 20260905180003 | 86 | 310 | 0.0 | 5.0 | 0.00 | 0.02 | 0.00 | 65 | 1010.3 |
| 20260905174500 | 85 | 22 | 0.0 | 5.0 | 0.00 | 0.02 | 0.00 | 62 | 1010.4 |
| 20260905173000 | 85 | 215 | 1.0 | 6.0 | 0.00 | 0.02 | 0.00 | 63 | 1010.1 |
| 20260905170003 | 86 | 134 | 2.0 | 7.0 | 0.00 | 0.02 | 0.00 | 60 | 1010.2 |
| 20260905160002 | 82 | 107 | 2.0 | 9.0 | 0.00 | 0.02 | 0.00 | 68 | 1011.2 |
| 20260905150001 | 80 | 159 | 1.0 | 11.0 | 0.00 | 0.02 | 0.00 | 75 | 1011.7 |
| 20260905140001 | 82 | 112 | 0.0 | 1.0 | 0.00 | 0.02 | 0.00 | 71 | 1011.0 |
| 20260905130001 | 79 | 124 | 0.0 | 2.0 | 0.00 | 0.02 | 0.00 | 76 | 1010.8 |
| 20260905120001 | 73 | 68 | 0.0 | 1.0 | 0.00 | 0.02 | 0.00 | 86 | 1010.8 |